Time;durP1;ratioP1;P1;durP2;ratioP2;P2;SDS_P1;SDS_P2;PMS_P1;PMS_P2;Temp;Humidity;BMP_temperature;BMP_pressure;BME280_temperature;BME280_humidity;BME280_pressure;Samples;Min_cycle;Max_cycle;Signal;HPM_P1;HPM_P2
2022/12/08 00:01:45;;;;;;;28.27;14.48;;;1.80;99.90;;;;;;5028795;28;20028;-79
2022/12/08 00:04:10;;;;;;;25.73;13.88;;;1.90;99.90;;;;;;5026586;28;20107;-79
2022/12/08 00:09:31;;;;;;;26.63;13.95;;;1.90;99.90;;;;;;5026046;28;20531;-79
2022/12/08 00:11:59;;;;;;;25.15;14.25;;;1.90;99.90;;;;;;5044866;28;20017;-79
2022/12/08 00:14:31;;;;;;;24.70;14.18;;;1.90;99.90;;;;;;5024902;28;20687;-79
2022/12/08 00:16:57;;;;;;;27.05;15.13;;;1.90;99.90;;;;;;5027303;28;20045;-79
2022/12/08 00:19:23;;;;;;;25.00;13.70;;;1.90;99.90;;;;;;5028332;28;20085;-79
2022/12/08 00:21:50;;;;;;;25.20;14.95;;;1.90;99.90;;;;;;5035383;28;20108;-79
2022/12/08 00:24:16;;;;;;;30.60;14.85;;;1.90;99.90;;;;;;5039307;28;20021;-79
2022/12/08 00:26:42;;;;;;;25.42;14.15;;;1.90;99.90;;;;;;5023121;28;20045;-80
2022/12/08 00:29:08;;;;;;;33.22;15.23;;;1.90;99.90;;;;;;5027046;28;20024;-79
2022/12/08 00:31:33;;;;;;;22.67;13.88;;;2.00;99.90;;;;;;5020800;28;20065;-79
2022/12/08 00:33:59;;;;;;;27.65;14.48;;;1.90;99.90;;;;;;5019935;28;20390;-80
2022/12/08 00:36:25;;;;;;;21.77;13.15;;;2.00;99.90;;;;;;5026905;28;20356;-79
2022/12/08 00:38:51;;;;;;;23.05;13.60;;;2.00;99.90;;;;;;5027306;28;20091;-79
2022/12/08 00:42:10;;;;;;;22.38;13.85;;;1.90;99.90;;;;;;5023132;28;20033;-79
2022/12/08 00:44:09;;;;;;;20.42;11.90;;;2.00;99.90;;;;;;5020248;28;20025;-79
2022/12/08 00:46:35;;;;;;;26.92;14.63;;;2.00;99.90;;;;;;5032098;28;20086;-79
2022/12/08 00:49:01;;;;;;;24.83;13.30;;;2.00;99.90;;;;;;5024668;28;20390;-79
2022/12/08 00:51:27;;;;;;;22.92;13.32;;;2.00;99.90;;;;;;5025051;28;20412;-80
2022/12/08 00:53:52;;;;;;;20.65;12.25;;;2.00;99.90;;;;;;5021243;28;20040;-79
2022/12/08 00:56:18;;;;;;;17.92;12.30;;;2.00;99.90;;;;;;5025139;28;20120;-79
2022/12/08 00:58:43;;;;;;;21.42;12.00;;;2.00;99.90;;;;;;5020411;28;20123;-79
2022/12/08 01:01:10;;;;;;;20.23;12.68;;;2.00;99.90;;;;;;5029489;28;20385;-79
2022/12/08 01:03:36;;;;;;;18.83;11.57;;;2.00;99.90;;;;;;5025499;28;20336;-80
2022/12/08 01:06:05;;;;;;;24.67;13.32;;;2.00;99.90;;;;;;5029561;28;20044;-79
2022/12/08 01:08:31;;;;;;;22.00;11.77;;;2.00;99.90;;;;;;5028723;28;20048;-79
2022/12/08 01:11:02;;;;;;;22.13;13.63;;;2.00;99.80;;;;;;5030188;28;20521;-79
2022/12/08 01:13:28;;;;;;;21.50;12.38;;;2.10;99.70;;;;;;5023934;28;20438;-79
2022/12/08 01:15:53;;;;;;;19.63;12.88;;;2.10;99.70;;;;;;5023990;28;20041;-79
2022/12/08 01:18:18;;;;;;;23.63;12.30;;;2.10;99.60;;;;;;5021370;28;20342;-81
2022/12/08 01:20:44;;;;;;;19.02;11.25;;;2.10;99.60;;;;;;5027518;28;20104;-79
2022/12/08 01:23:09;;;;;;;17.45;11.98;;;2.10;99.60;;;;;;5016736;28;20125;-80
2022/12/08 01:25:35;;;;;;;17.35;11.20;;;2.10;99.60;;;;;;5024709;28;20048;-80
2022/12/08 01:28:00;;;;;;;20.77;11.32;;;2.10;99.50;;;;;;5025619;28;20032;-80
2022/12/08 01:30:26;;;;;;;18.58;10.57;;;2.10;99.60;;;;;;5020833;28;20147;-79
2022/12/08 01:32:51;;;;;;;20.48;11.70;;;2.10;99.50;;;;;;5023516;28;20029;-79
2022/12/08 01:35:17;;;;;;;17.85;10.82;;;2.10;99.50;;;;;;5027860;28;20026;-79
2022/12/08 01:37:43;;;;;;;21.35;10.25;;;2.10;99.50;;;;;;5028687;28;20033;-79
2022/12/08 01:40:09;;;;;;;19.95;11.20;;;2.10;99.50;;;;;;5023310;28;20021;-79
2022/12/08 01:42:37;;;;;;;22.38;10.77;;;2.10;99.40;;;;;;5021994;28;20049;-79
2022/12/08 01:45:32;;;;;;;21.30;10.88;;;2.10;99.40;;;;;;5017783;28;20090;-79
2022/12/08 01:48:07;;;;;;;18.73;10.57;;;2.10;99.40;;;;;;5022441;28;20476;-80
2022/12/08 01:50:33;;;;;;;16.15;11.07;;;2.10;99.40;;;;;;5025986;28;20033;-79
2022/12/08 01:53:02;;;;;;;19.55;10.50;;;2.10;99.30;;;;;;5026697;28;20052;-79
2022/12/08 01:55:34;;;;;;;20.17;10.95;;;2.10;99.40;;;;;;5027780;28;20045;-79
2022/12/08 01:58:10;;;;;;;15.20;9.75;;;2.10;99.30;;;;;;5021432;28;20029;-80
2022/12/08 02:00:35;;;;;;;13.82;9.20;;;2.10;99.20;;;;;;5024823;28;20040;-80
2022/12/08 02:03:05;;;;;;;15.05;9.63;;;2.10;99.20;;;;;;5024690;28;20026;-79
2022/12/08 02:05:33;;;;;;;16.13;9.65;;;2.10;99.20;;;;;;5017696;28;20030;-80
2022/12/08 02:08:03;;;;;;;16.67;9.05;;;2.10;99.10;;;;;;5028481;28;20071;-80
2022/12/08 02:10:31;;;;;;;17.23;9.45;;;2.10;99.10;;;;;;5026602;28;20057;-79
2022/12/08 02:12:58;;;;;;;17.15;9.27;;;2.10;99.10;;;;;;5026157;28;20857;-80
2022/12/08 02:15:37;;;;;;;17.25;9.13;;;2.00;99.10;;;;;;5021966;28;20138;-79
2022/12/08 02:18:38;;;;;;;15.57;9.75;;;2.10;99.10;;;;;;5024811;28;20033;-79
2022/12/08 02:21:23;;;;;;;15.45;9.75;;;2.00;99.10;;;;;;5030758;28;20332;-81
2022/12/08 02:24:16;;;;;;;22.02;10.60;;;2.10;99.10;;;;;;5026283;28;20041;-79
2022/12/08 02:27:13;;;;;;;17.00;10.25;;;2.10;99.10;;;;;;5024644;28;20167;-79
2022/12/08 02:30:00;;;;;;;21.10;11.63;;;2.10;99.10;;;;;;5028776;28;20117;-79
2022/12/08 02:32:50;;;;;;;20.00;13.18;;;2.00;99.10;;;;;;5027583;28;20037;-78
2022/12/08 02:35:23;;;;;;;21.83;12.18;;;2.00;99.10;;;;;;5025571;28;20410;-79
2022/12/08 02:38:13;;;;;;;21.92;12.65;;;1.90;99.20;;;;;;5027159;28;20403;-78
2022/12/08 02:40:55;;;;;;;19.23;12.05;;;1.90;99.20;;;;;;5029113;28;20437;-78
2022/12/08 02:43:32;;;;;;;22.60;12.77;;;1.90;99.20;;;;;;5026948;28;20403;-78
2022/12/08 02:46:04;;;;;;;23.08;13.85;;;1.90;99.30;;;;;;5026376;28;20035;-78
2022/12/08 02:48:32;;;;;;;20.58;12.98;;;1.90;99.40;;;;;;5027384;28;20116;-78
2022/12/08 02:50:58;;;;;;;19.85;12.65;;;1.90;99.40;;;;;;5028772;28;20144;-78
2022/12/08 02:53:24;;;;;;;21.77;13.82;;;1.90;99.50;;;;;;5028764;28;20113;-79
2022/12/08 02:56:11;;;;;;;19.27;12.82;;;1.90;99.60;;;;;;5031868;28;20303;-78
2022/12/08 02:59:09;;;;;;;19.75;12.75;;;1.90;99.60;;;;;;5024073;28;20068;-78
2022/12/08 03:02:02;;;;;;;21.90;12.75;;;1.90;99.60;;;;;;5030747;28;20406;-78
2022/12/08 03:04:53;;;;;;;20.13;12.90;;;1.90;99.60;;;;;;5022586;28;20053;-77
2022/12/08 03:07:37;;;;;;;23.48;13.50;;;1.70;99.60;;;;;;5023747;28;20116;-78
2022/12/08 03:10:11;;;;;;;18.13;12.95;;;1.70;99.60;;;;;;5029756;28;20025;-78
2022/12/08 03:12:48;;;;;;;21.33;13.02;;;1.70;99.70;;;;;;5023207;28;20147;-78
2022/12/08 03:15:17;;;;;;;19.05;13.15;;;1.60;99.70;;;;;;5028512;28;20021;-78
2022/12/08 03:17:50;;;;;;;25.63;13.48;;;1.60;99.80;;;;;;5023007;28;20054;-78
2022/12/08 03:20:20;;;;;;;20.02;12.63;;;1.60;99.80;;;;;;5032680;28;20037;-78
2022/12/08 03:22:47;;;;;;;19.07;13.30;;;1.70;99.90;;;;;;5020369;28;20041;-78
2022/12/08 03:25:14;;;;;;;20.90;12.13;;;1.70;99.90;;;;;;5032398;28;20272;-78
2022/12/08 03:27:40;;;;;;;18.83;13.65;;;1.60;99.90;;;;;;5031421;28;20033;-78
2022/12/08 03:30:06;;;;;;;17.45;12.02;;;1.60;99.90;;;;;;5025149;28;20041;-78
2022/12/08 03:32:39;;;;;;;18.65;11.38;;;1.60;99.90;;;;;;5029233;28;20060;-78
2022/12/08 03:35:09;;;;;;;19.23;12.43;;;1.60;99.90;;;;;;5039992;28;20112;-79
2022/12/08 03:37:36;;;;;;;18.48;11.75;;;1.60;99.90;;;;;;5021083;28;20433;-78
2022/12/08 03:40:03;;;;;;;19.13;11.75;;;1.50;99.90;;;;;;5023436;28;20030;-79
2022/12/08 03:42:29;;;;;;;20.33;12.75;;;1.50;99.90;;;;;;5041395;28;20041;-79
2022/12/08 03:44:54;;;;;;;19.13;12.35;;;1.50;99.90;;;;;;5027486;28;20029;-79
2022/12/08 03:47:20;;;;;;;17.60;11.43;;;1.50;99.90;;;;;;5026623;28;20404;-78
2022/12/08 03:49:45;;;;;;;17.17;11.40;;;1.40;99.90;;;;;;5026894;28;20037;-78
2022/12/08 03:52:11;;;;;;;16.52;11.18;;;1.40;99.90;;;;;;5028823;28;20452;-78
2022/12/08 03:54:36;;;;;;;18.88;11.48;;;1.40;99.90;;;;;;5029569;28;20017;-78
2022/12/08 03:57:02;;;;;;;16.83;11.80;;;1.40;99.90;;;;;;5022920;28;20083;-79
2022/12/08 03:59:27;;;;;;;15.90;12.48;;;1.40;99.90;;;;;;5029225;28;20410;-78
2022/12/08 04:01:53;;;;;;;16.42;11.35;;;1.30;99.90;;;;;;5024778;28;20041;-78
2022/12/08 04:04:18;;;;;;;19.80;12.20;;;1.30;99.90;;;;;;5022715;28;20033;-78
2022/12/08 04:06:44;;;;;;;17.58;11.57;;;1.30;99.90;;;;;;5028185;28;20106;-79
2022/12/08 04:09:09;;;;;;;18.48;12.20;;;1.20;99.90;;;;;;5027333;28;20032;-79
2022/12/08 04:11:35;;;;;;;22.52;13.30;;;1.20;99.90;;;;;;5029856;28;20453;-78
2022/12/08 04:14:00;;;;;;;19.80;12.27;;;1.20;99.90;;;;;;5025778;28;20033;-78
2022/12/08 04:16:26;;;;;;;16.35;10.50;;;1.20;99.90;;;;;;5029248;28;20065;-79
2022/12/08 04:18:52;;;;;;;15.15;10.75;;;1.20;99.90;;;;;;5031081;28;20017;-79
2022/12/08 04:21:18;;;;;;;18.73;11.45;;;1.10;99.90;;;;;;5028600;28;20373;-79
2022/12/08 04:23:44;;;;;;;17.17;11.32;;;1.10;99.90;;;;;;5028661;28;20475;-79
2022/12/08 04:26:10;;;;;;;15.50;10.85;;;1.10;99.90;;;;;;5027871;28;20072;-79
2022/12/08 04:28:35;;;;;;;14.45;9.88;;;1.10;99.90;;;;;;5026648;28;20025;-79
2022/12/08 04:31:01;;;;;;;14.90;10.38;;;1.10;99.90;;;;;;5033298;28;20140;-79
2022/12/08 04:33:27;;;;;;;14.35;9.25;;;1.10;99.90;;;;;;5028351;28;20029;-79
2022/12/08 04:35:52;;;;;;;15.10;9.43;;;1.00;99.90;;;;;;5023795;28;20351;-78
2022/12/08 04:38:18;;;;;;;16.27;9.98;;;0.90;99.90;;;;;;5026871;28;20025;-78
2022/12/08 04:40:43;;;;;;;14.05;9.35;;;0.90;99.90;;;;;;5026889;28;20033;-78
2022/12/08 04:43:09;;;;;;;16.40;9.48;;;0.90;99.90;;;;;;5026300;28;20580;-78
2022/12/08 04:45:37;;;;;;;13.85;9.15;;;0.80;99.90;;;;;;5025110;28;20168;-78
2022/12/08 04:48:03;;;;;;;13.98;9.20;;;0.80;99.90;;;;;;5025747;28;20304;-78
2022/12/08 04:50:28;;;;;;;13.80;9.50;;;0.70;99.90;;;;;;5026336;28;20125;-78
2022/12/08 04:52:54;;;;;;;13.18;8.80;;;0.70;99.90;;;;;;5026225;28;20052;-79
2022/12/08 04:55:19;;;;;;;13.63;9.82;;;0.70;99.90;;;;;;5025404;28;20104;-78
2022/12/08 04:57:45;;;;;;;13.82;9.50;;;0.70;99.90;;;;;;5024859;28;20423;-78
2022/12/08 05:00:12;;;;;;;15.82;9.82;;;0.70;99.90;;;;;;5021722;28;20022;-78
2022/12/08 05:02:38;;;;;;;13.52;9.32;;;0.60;99.90;;;;;;5026039;28;20030;-78
2022/12/08 05:05:04;;;;;;;14.23;9.57;;;0.60;99.90;;;;;;5025753;28;20037;-78
2022/12/08 05:07:30;;;;;;;15.15;10.15;;;0.60;99.90;;;;;;5035275;28;20097;-78
2022/12/08 05:09:56;;;;;;;14.15;9.23;;;0.50;99.90;;;;;;5025166;28;20056;-78
2022/12/08 05:12:21;;;;;;;15.52;10.20;;;0.60;99.90;;;;;;5026599;28;20026;-78
2022/12/08 05:14:47;;;;;;;14.70;10.00;;;0.60;99.90;;;;;;5023824;28;20022;-78
2022/12/08 05:17:14;;;;;;;15.98;9.30;;;0.60;99.90;;;;;;5031446;28;20624;-78
2022/12/08 05:19:39;;;;;;;14.55;10.15;;;0.50;99.90;;;;;;5022365;28;20022;-78
2022/12/08 05:22:05;;;;;;;14.75;9.75;;;0.50;99.90;;;;;;5024590;28;20056;-78
2022/12/08 05:24:30;;;;;;;18.38;10.30;;;0.50;99.90;;;;;;5025521;28;20129;-78
2022/12/08 05:26:56;;;;;;;14.95;9.98;;;0.50;99.90;;;;;;5027478;28;20017;-78
2022/12/08 05:29:21;;;;;;;16.02;10.35;;;0.40;99.90;;;;;;5027968;28;20098;-78
2022/12/08 05:31:47;;;;;;;16.58;10.50;;;0.40;99.90;;;;;;5027941;28;20112;-76
2022/12/08 05:34:12;;;;;;;17.00;11.23;;;0.40;99.90;;;;;;5026081;28;20105;-76
2022/12/08 05:36:38;;;;;;;16.60;11.32;;;0.40;99.90;;;;;;5027547;28;20193;-77
2022/12/08 05:39:03;;;;;;;20.45;11.95;;;0.40;99.90;;;;;;5027048;28;20030;-76
2022/12/08 05:41:29;;;;;;;20.17;13.32;;;0.40;99.90;;;;;;5022426;28;20029;-76
2022/12/08 05:43:54;;;;;;;21.10;12.73;;;0.40;99.90;;;;;;5027901;28;20120;-76
2022/12/08 05:46:20;;;;;;;19.85;13.43;;;0.40;99.90;;;;;;5021964;28;20394;-76
2022/12/08 05:48:45;;;;;;;24.65;13.93;;;0.40;99.90;;;;;;5025396;28;20048;-76
2022/12/08 05:51:21;;;;;;;21.55;14.13;;;0.40;99.90;;;;;;5028864;28;20049;-77
2022/12/08 05:53:48;;;;;;;19.92;13.23;;;0.40;99.90;;;;;;5021390;28;20026;-76
2022/12/08 05:56:14;;;;;;;21.95;14.07;;;0.40;99.90;;;;;;5021005;28;20068;-76
2022/12/08 05:58:40;;;;;;;20.73;13.63;;;0.40;99.90;;;;;;5020255;28;20330;-77
2022/12/08 06:01:05;;;;;;;24.73;14.85;;;0.40;99.90;;;;;;5040473;28;20017;-75
2022/12/08 06:03:32;;;;;;;23.92;15.10;;;0.40;99.90;;;;;;5016523;28;20037;-75
2022/12/08 06:06:00;;;;;;;27.52;17.25;;;0.50;99.90;;;;;;5025373;28;20117;-76
2022/12/08 06:08:26;;;;;;;26.13;14.77;;;0.50;99.90;;;;;;5030659;28;20215;-76
2022/12/08 06:10:51;;;;;;;30.23;17.23;;;0.50;99.90;;;;;;5028075;28;20375;-76
2022/12/08 06:13:16;;;;;;;27.85;15.63;;;0.50;99.90;;;;;;5027856;28;20033;-76
2022/12/08 06:15:42;;;;;;;26.77;15.68;;;0.40;99.90;;;;;;5027675;28;20029;-76
2022/12/08 06:18:10;;;;;;;25.38;15.70;;;0.50;99.90;;;;;;5016279;28;20041;-76
2022/12/08 06:20:36;;;;;;;25.85;15.77;;;0.40;99.90;;;;;;5022753;28;20430;-76
2022/12/08 06:23:02;;;;;;;30.77;16.10;;;0.50;99.90;;;;;;5019221;28;20057;-76
2022/12/08 06:25:27;;;;;;;27.08;15.27;;;0.50;99.90;;;;;;5034677;28;20032;-75
2022/12/08 06:27:53;;;;;;;26.00;15.52;;;0.50;99.90;;;;;;5021769;28;20049;-76
2022/12/08 06:30:18;;;;;;;24.08;14.30;;;0.50;99.90;;;;;;5019822;28;20130;-77
2022/12/08 06:32:44;;;;;;;28.27;15.35;;;0.50;99.90;;;;;;5020555;28;20025;-77
2022/12/08 06:35:09;;;;;;;28.05;15.25;;;0.50;99.90;;;;;;5021259;28;20165;-77
2022/12/08 06:37:35;;;;;;;26.60;15.55;;;0.50;99.90;;;;;;5027437;28;20033;-76
2022/12/08 06:40:01;;;;;;;27.52;15.57;;;0.50;99.90;;;;;;5024265;28;20048;-77
2022/12/08 06:42:45;;;;;;;26.15;16.02;;;0.50;99.90;;;;;;5022692;28;20111;-77
2022/12/08 06:45:13;;;;;;;27.10;15.70;;;0.50;99.90;;;;;;5018171;28;20100;-77
2022/12/08 06:47:38;;;;;;;30.85;15.18;;;0.50;99.90;;;;;;5026752;28;20017;-77
2022/12/08 06:50:05;;;;;;;29.17;16.80;;;0.60;99.90;;;;;;5025447;28;20343;-72
2022/12/08 06:52:30;;;;;;;27.05;15.65;;;0.60;99.90;;;;;;5029006;28;20053;-73
2022/12/08 06:54:56;;;;;;;27.20;15.40;;;0.60;99.90;;;;;;5023143;28;20081;-72
2022/12/08 06:57:23;;;;;;;26.85;16.30;;;0.60;99.90;;;;;;5026373;28;20443;-71
2022/12/08 06:59:48;;;;;;;25.48;15.35;;;0.60;99.90;;;;;;5018210;28;21019;-71
2022/12/08 07:02:13;;;;;;;28.73;15.68;;;0.70;99.90;;;;;;5020503;28;20029;-72
2022/12/08 07:04:39;;;;;;;26.52;15.70;;;0.70;99.90;;;;;;5018618;28;20080;-72
2022/12/08 07:07:04;;;;;;;30.95;16.77;;;0.70;99.90;;;;;;5013370;28;20025;-72
2022/12/08 07:09:30;;;;;;;33.35;16.25;;;0.70;99.90;;;;;;5024671;28;20437;-73
2022/12/08 07:11:55;;;;;;;31.10;16.00;;;0.70;99.90;;;;;;5025252;28;20088;-72
2022/12/08 07:14:23;;;;;;;27.55;15.75;;;0.80;99.90;;;;;;5014730;28;20047;-72
2022/12/08 07:16:50;;;;;;;33.25;16.08;;;0.80;99.90;;;;;;5029334;28;20172;-72
2022/12/08 07:19:15;;;;;;;29.73;14.68;;;0.80;99.90;;;;;;5028654;28;20168;-72
2022/12/08 07:21:41;;;;;;;28.17;15.15;;;0.80;99.90;;;;;;5036931;28;20517;-72
2022/12/08 07:24:07;;;;;;;33.85;17.05;;;0.90;99.90;;;;;;5026911;28;20022;-77
2022/12/08 07:26:32;;;;;;;30.38;15.90;;;0.90;99.90;;;;;;5027393;28;20052;-77
2022/12/08 07:28:59;;;;;;;34.13;16.83;;;0.90;99.90;;;;;;5024016;28;20422;-78
2022/12/08 07:31:25;;;;;;;29.67;16.02;;;1.00;99.90;;;;;;5026485;28;20040;-77
2022/12/08 07:33:51;;;;;;;31.45;15.27;;;1.00;99.90;;;;;;5036095;28;20028;-77
2022/12/08 07:36:17;;;;;;;31.50;16.20;;;1.00;99.90;;;;;;5020754;28;20371;-77
2022/12/08 07:38:43;;;;;;;29.45;15.38;;;1.00;99.90;;;;;;5023645;28;20299;-77
2022/12/08 07:41:35;;;;;;;28.10;14.43;;;1.10;99.90;;;;;;5035956;28;20119;-77
2022/12/08 07:44:00;;;;;;;25.83;13.68;;;1.20;99.90;;;;;;5021511;28;20049;-78
2022/12/08 07:46:26;;;;;;;30.98;15.93;;;1.20;99.90;;;;;;5023281;28;20087;-77
2022/12/08 07:48:53;;;;;;;25.33;13.93;;;1.20;99.90;;;;;;5020967;28;20035;-78
2022/12/08 07:51:19;;;;;;;25.02;13.40;;;1.30;99.90;;;;;;5023069;28;20037;-78
2022/12/08 07:53:48;;;;;;;23.85;13.20;;;1.40;99.90;;;;;;5018451;28;20056;-78
2022/12/08 07:56:14;;;;;;;25.02;13.63;;;1.40;99.90;;;;;;5017154;28;20183;-78
2022/12/08 07:58:40;;;;;;;25.95;13.18;;;1.40;99.90;;;;;;5020734;28;20180;-78
2022/12/08 08:01:27;;;;;;;22.70;12.43;;;1.40;99.90;;;;;;5022625;28;20037;-78
2022/12/08 08:03:54;;;;;;;23.65;11.80;;;1.50;99.90;;;;;;5026861;28;20546;-79
2022/12/08 08:06:19;;;;;;;20.65;11.25;;;1.60;99.90;;;;;;5020687;28;20055;-77
2022/12/08 08:08:45;;;;;;;21.52;10.85;;;1.60;99.90;;;;;;5023997;28;20055;-78
2022/12/08 08:11:10;;;;;;;21.08;11.48;;;1.60;99.90;;;;;;5023148;28;20107;-77
2022/12/08 08:13:36;;;;;;;20.45;11.88;;;1.60;99.90;;;;;;5020503;28;20462;-79
2022/12/08 08:16:04;;;;;;;24.80;12.32;;;1.70;99.90;;;;;;5024517;28;20029;-78
2022/12/08 08:18:30;;;;;;;23.38;12.50;;;1.70;99.90;;;;;;5018420;28;20144;-79
2022/12/08 08:20:55;;;;;;;22.75;11.88;;;1.80;99.90;;;;;;5025520;28;20464;-78
2022/12/08 08:23:21;;;;;;;19.30;10.82;;;1.70;99.90;;;;;;5024928;28;20057;-78
2022/12/08 08:25:46;;;;;;;20.15;11.43;;;1.70;99.90;;;;;;5023780;28;20470;-77
2022/12/08 08:28:12;;;;;;;24.10;12.07;;;1.60;99.90;;;;;;5022227;28;20025;-78
2022/12/08 08:30:37;;;;;;;24.50;12.63;;;1.60;99.90;;;;;;5020555;28;20461;-78
2022/12/08 08:33:03;;;;;;;21.48;11.70;;;1.70;99.90;;;;;;5026671;28;20033;-78
2022/12/08 08:35:29;;;;;;;19.63;11.32;;;1.60;99.90;;;;;;5029351;28;20398;-78
2022/12/08 08:37:55;;;;;;;18.60;9.93;;;1.70;99.90;;;;;;5026732;28;20449;-78
2022/12/08 08:40:20;;;;;;;19.20;10.20;;;1.70;99.90;;;;;;5027464;28;20108;-78
2022/12/08 08:42:45;;;;;;;22.17;10.23;;;1.70;99.90;;;;;;5027772;28;20033;-78
2022/12/08 08:45:11;;;;;;;18.65;9.43;;;1.70;99.90;;;;;;5020526;28;20119;-77
2022/12/08 08:47:36;;;;;;;19.58;9.40;;;1.80;99.90;;;;;;5031470;28;20025;-78
2022/12/08 08:50:03;;;;;;;14.00;7.70;;;1.80;99.90;;;;;;5025601;28;20029;-78
2022/12/08 08:52:29;;;;;;;12.05;6.90;;;1.80;99.90;;;;;;5027339;28;20032;-79
2022/12/08 08:54:54;;;;;;;17.30;8.35;;;1.80;99.90;;;;;;5025133;28;20041;-78
2022/12/08 08:57:19;;;;;;;12.77;7.13;;;1.80;99.90;;;;;;5024907;28;20025;-78
2022/12/08 08:59:45;;;;;;;14.85;7.72;;;1.80;99.90;;;;;;5020917;28;20020;-78
2022/12/08 09:02:18;;;;;;;13.77;6.90;;;1.90;99.90;;;;;;5023081;28;20034;-78
2022/12/08 09:04:44;;;;;;;12.43;6.55;;;1.80;99.90;;;;;;5026062;28;20438;-77
2022/12/08 09:07:10;;;;;;;11.43;6.28;;;1.90;99.90;;;;;;5021367;28;20353;-78
2022/12/08 09:09:37;;;;;;;14.77;5.55;;;1.90;99.90;;;;;;5023034;28;20025;-77
2022/12/08 09:12:03;;;;;;;11.10;4.85;;;1.90;99.90;;;;;;5017532;28;20090;-77
2022/12/08 09:14:28;;;;;;;10.60;5.65;;;1.90;99.80;;;;;;5033967;28;20108;-78
2022/12/08 09:16:54;;;;;;;9.70;4.40;;;1.90;99.60;;;;;;5017151;28;20029;-78
2022/12/08 09:19:19;;;;;;;6.90;3.63;;;2.00;99.50;;;;;;5021526;28;20052;-77
2022/12/08 09:21:44;;;;;;;7.82;4.10;;;2.00;99.30;;;;;;5022707;28;20343;-78
2022/12/08 09:24:14;;;;;;;10.23;4.47;;;2.10;99.20;;;;;;5022245;28;20017;-78
2022/12/08 09:26:40;;;;;;;9.00;3.63;;;2.00;99.10;;;;;;5022512;28;20036;-77
2022/12/08 09:29:06;;;;;;;7.63;3.58;;;2.10;98.80;;;;;;5021853;28;20052;-78
2022/12/08 09:31:31;;;;;;;9.52;3.67;;;2.00;98.60;;;;;;5028726;28;20053;-78
2022/12/08 09:33:58;;;;;;;7.57;3.42;;;2.10;98.70;;;;;;5019385;28;20041;-78
2022/12/08 09:36:24;;;;;;;6.88;2.78;;;2.00;98.40;;;;;;5017274;28;20092;-78
2022/12/08 09:38:52;;;;;;;5.93;2.83;;;2.00;98.20;;;;;;5025926;28;20026;-78
2022/12/08 09:42:03;;;;;;;5.45;2.78;;;2.00;98.20;;;;;;5026375;28;20513;-77
2022/12/08 09:44:43;;;;;;;5.57;2.63;;;2.10;98.20;;;;;;5027162;28;20391;-78
2022/12/08 09:47:31;;;;;;;5.95;3.08;;;2.00;97.90;;;;;;5025152;28;20412;-78
2022/12/08 09:50:13;;;;;;;5.40;2.90;;;2.10;98.00;;;;;;5022348;28;20083;-78
2022/12/08 09:53:15;;;;;;;5.38;2.40;;;2.00;98.00;;;;;;5016475;28;20080;-78
2022/12/08 09:55:56;;;;;;;5.18;3.05;;;2.00;97.90;;;;;;5016776;28;20021;-78
2022/12/08 09:59:03;;;;;;;4.90;2.80;;;2.10;98.10;;;;;;5023576;28;20037;-79
2022/12/08 10:01:31;;;;;;;5.72;2.30;;;2.00;98.00;;;;;;4974734;28;20144;-77
2022/12/08 10:03:58;;;;;;;5.47;3.20;;;2.10;98.00;;;;;;4965607;28;20022;-77
2022/12/08 10:06:42;;;;;;;5.70;2.72;;;2.10;98.00;;;;;;4986213;28;20045;-78
2022/12/08 10:09:37;;;;;;;5.57;2.88;;;2.10;97.90;;;;;;5024569;28;20022;-77
2022/12/08 10:12:41;;;;;;;5.47;2.60;;;2.10;97.80;;;;;;5017744;28;20059;-77
2022/12/08 10:15:27;;;;;;;4.35;2.30;;;2.10;97.60;;;;;;5027709;28;20017;-77
2022/12/08 10:17:54;;;;;;;3.80;2.25;;;2.10;97.40;;;;;;5023077;28;20037;-78
2022/12/08 10:20:24;;;;;;;3.55;2.20;;;2.10;97.10;;;;;;5033182;28;20477;-73
2022/12/08 10:23:05;;;;;;;2.72;1.60;;;2.10;96.70;;;;;;5018010;28;20045;-77
2022/12/08 10:25:58;;;;;;;7.25;2.30;;;2.10;96.70;;;;;;5023668;28;20078;-77
2022/12/08 10:28:23;;;;;;;3.88;1.90;;;2.10;96.50;;;;;;5023373;28;20041;-77
2022/12/08 10:30:49;;;;;;;2.20;1.30;;;2.10;96.20;;;;;;5023901;28;20025;-77
2022/12/08 10:33:16;;;;;;;3.60;2.00;;;2.00;96.10;;;;;;5022355;28;20480;-77
2022/12/08 10:35:47;;;;;;;3.13;1.60;;;2.10;96.50;;;;;;5020829;28;20056;-77
2022/12/08 10:38:20;;;;;;;3.08;1.55;;;2.10;96.40;;;;;;5024830;28;20030;-77
2022/12/08 10:40:47;;;;;;;2.83;1.60;;;2.10;96.50;;;;;;5018644;28;20099;-77
2022/12/08 10:43:17;;;;;;;3.03;1.40;;;2.10;96.50;;;;;;5022318;28;20053;-77
2022/12/08 10:45:43;;;;;;;2.83;1.63;;;2.30;96.30;;;;;;5022499;28;20043;-77
2022/12/08 10:48:25;;;;;;;3.75;1.48;;;2.40;95.70;;;;;;5017983;28;20367;-77
2022/12/08 10:50:55;;;;;;;2.17;1.63;;;2.40;95.30;;;;;;5027106;28;20092;-79
2022/12/08 10:53:26;;;;;;;2.92;1.73;;;2.40;95.40;;;;;;5039378;28;20472;-77
2022/12/08 10:56:04;;;;;;;;;;;2.40;95.50;;;;;;5023603;28;20103;-77
2022/12/08 10:58:41;;;;;;;2.33;1.38;;;2.30;95.70;;;;;;5016326;28;19905;-77
2022/12/08 11:01:28;;;;;;;3.72;1.50;;;2.20;95.60;;;;;;5018397;28;20025;-77
2022/12/08 11:03:57;;;;;;;2.03;1.20;;;2.20;95.90;;;;;;5024895;28;20325;-78
2022/12/08 11:06:37;;;;;;;2.20;1.40;;;2.20;95.90;;;;;;5026788;28;20130;-77
2022/12/08 11:09:21;;;;;;;5.45;1.90;;;2.20;96.10;;;;;;5022416;28;20022;-77
2022/12/08 11:11:58;;;;;;;4.65;1.60;;;2.30;96.50;;;;;;5013939;28;20028;-77
2022/12/08 11:14:28;;;;;;;3.67;2.03;;;2.30;96.30;;;;;;5029729;28;20037;-77
2022/12/08 11:17:02;;;;;;;3.78;1.80;;;2.30;95.90;;;;;;5023478;28;20038;-73
2022/12/08 11:19:28;;;;;;;3.05;1.80;;;2.30;95.30;;;;;;5019279;28;20121;-75
2022/12/08 11:21:53;;;;;;;4.95;1.52;;;2.30;94.60;;;;;;5025776;28;20145;-74
2022/12/08 11:24:27;;;;;;;3.00;1.55;;;2.30;94.80;;;;;;5028149;28;20473;-75
2022/12/08 11:27:01;;;;;;;3.28;1.80;;;2.20;94.20;;;;;;5035666;28;20493;-73
2022/12/08 11:29:32;;;;;;;3.47;1.70;;;2.10;94.40;;;;;;5025857;28;20029;-73
2022/12/08 11:32:02;;;;;;;;;;;2.10;94.80;;;;;;5033824;28;20033;-74
2022/12/08 11:34:44;;;;;;;3.95;2.10;;;2.20;95.20;;;;;;5024265;28;19905;-75
2022/12/08 11:37:27;;;;;;;5.68;3.20;;;2.40;95.20;;;;;;5023182;28;20132;-77
2022/12/08 11:39:57;;;;;;;3.90;2.15;;;2.60;95.40;;;;;;5024806;28;20025;-77
2022/12/08 11:42:29;;;;;;;5.20;2.65;;;2.70;95.10;;;;;;5020884;28;20202;-77
2022/12/08 11:44:58;;;;;;;2.92;1.95;;;3.00;94.70;;;;;;5014451;28;20709;-77
2022/12/08 11:47:34;;;;;;;3.95;2.13;;;3.30;94.40;;;;;;5023902;28;20029;-77
2022/12/08 11:50:20;;;;;;;3.80;2.03;;;3.30;93.60;;;;;;5018816;28;20117;-77
2022/12/08 11:52:49;;;;;;;3.13;2.03;;;3.20;93.00;;;;;;5014329;28;20133;-77
2022/12/08 11:55:38;;;;;;;4.03;2.70;;;3.20;93.40;;;;;;5016940;28;20091;-79
2022/12/08 11:58:20;;;;;;;4.20;2.53;;;3.60;93.40;;;;;;5021648;28;20030;-79
2022/12/08 12:00:46;;;;;;;3.63;2.17;;;3.80;92.50;;;;;;5017989;28;20033;-79
2022/12/08 12:03:24;;;;;;;4.20;1.95;;;4.10;92.10;;;;;;5021076;28;20056;-77
2022/12/08 12:06:08;;;;;;;3.40;1.90;;;4.10;91.00;;;;;;5012186;28;20022;-76
2022/12/08 12:09:12;;;;;;;2.70;1.80;;;4.00;91.00;;;;;;5026069;28;20030;-77
2022/12/08 12:12:18;;;;;;;3.95;1.90;;;3.80;91.00;;;;;;5001656;28;20143;-80
2022/12/08 12:15:05;;;;;;;6.72;2.17;;;3.60;91.80;;;;;;5022434;28;20029;-79
2022/12/08 12:17:39;;;;;;;2.80;2.00;;;3.60;92.40;;;;;;5026507;28;20324;-78
2022/12/08 12:20:14;;;;;;;3.83;2.45;;;3.40;92.20;;;;;;5029341;28;20035;-78
2022/12/08 12:22:43;;;;;;;4.00;2.40;;;3.20;92.10;;;;;;5016691;28;20041;-78
2022/12/08 12:25:17;;;;;;;2.95;2.03;;;3.20;92.80;;;;;;5022860;28;20116;-79
2022/12/08 12:27:44;;;;;;;3.67;2.20;;;3.20;93.10;;;;;;5025364;28;20033;-78
2022/12/08 12:30:21;;;;;;;3.83;2.25;;;3.10;92.90;;;;;;5023370;28;20037;-77
2022/12/08 12:32:59;;;;;;;4.03;2.45;;;3.10;93.40;;;;;;5035503;28;20021;-78
2022/12/08 12:35:41;;;;;;;4.97;3.00;;;3.10;93.20;;;;;;5023540;28;20470;-78
2022/12/08 12:41:25;;;;;;;4.65;2.90;;;3.00;93.80;;;;;;5022269;28;20036;-78
2022/12/08 12:44:06;;;;;;;4.40;2.85;;;2.90;94.00;;;;;;5030465;28;20039;-78
2022/12/08 12:46:34;;;;;;;;;;;3.00;94.00;;;;;;5026729;28;20112;-78
2022/12/08 12:49:38;;;;;;;4.47;2.97;;;3.00;94.20;;;;;;5027846;28;19909;-78
2022/12/08 12:52:32;;;;;;;6.38;3.00;;;3.10;94.30;;;;;;5037598;28;20404;-78
2022/12/08 12:54:58;;;;;;;7.40;3.65;;;3.20;94.20;;;;;;5028530;28;20111;-78
2022/12/08 12:57:33;;;;;;;6.22;3.25;;;3.40;93.90;;;;;;5025661;28;20045;-78
2022/12/08 12:59:59;;;;;;;4.75;3.08;;;3.60;94.00;;;;;;5013119;28;20037;-78
2022/12/08 13:02:43;;;;;;;4.68;2.50;;;3.60;93.50;;;;;;5015502;28;20455;-79
2022/12/08 13:05:28;;;;;;;7.18;2.08;;;3.60;92.90;;;;;;5026842;28;20103;-78
2022/12/08 13:07:58;;;;;;;3.00;1.98;;;3.60;92.60;;;;;;5023291;28;20120;-78
2022/12/08 13:10:34;;;;;;;6.43;2.50;;;3.60;92.80;;;;;;5031889;28;20087;-78